Time;durP1;ratioP1;P1;durP2;ratioP2;P2;SDS_P1;SDS_P2;PMS_P1;PMS_P2;Temp;Humidity;BMP_temperature;BMP_pressure;BME280_temperature;BME280_humidity;BME280_pressure;Samples;Min_cycle;Max_cycle;Signal;HPM_P1;HPM_P2
2022/08/19 00:02:04;;;;;;;33.67;19.00;;;;;;;20.45;77.53;100987.13;4999708;28;20096;-70
2022/08/19 00:04:32;;;;;;;28.85;17.08;;;;;;;20.35;78.25;100980.41;4996589;28;20037;-70
2022/08/19 00:06:58;;;;;;;27.10;18.98;;;;;;;20.20;78.95;100967.78;5006020;28;20095;-70
2022/08/19 00:09:25;;;;;;;34.33;23.40;;;;;;;20.08;80.32;100966.75;5002140;28;20026;-70
2022/08/19 00:11:52;;;;;;;44.75;26.05;;;;;;;20.22;80.13;100960.16;4996962;28;20130;-70
2022/08/19 00:14:18;;;;;;;44.35;27.30;;;;;;;20.30;79.82;100962.66;4997345;28;20042;-70
2022/08/19 00:16:46;;;;;;;47.88;27.50;;;;;;;20.17;80.66;100967.38;4992859;28;20078;-69
2022/08/19 00:19:12;;;;;;;41.13;26.70;;;;;;;20.18;80.44;100961.66;5005901;28;20161;-70
2022/08/19 00:21:39;;;;;;;48.58;27.52;;;;;;;20.27;80.58;100968.56;4991230;28;20053;-72
2022/08/19 00:24:06;;;;;;;46.15;29.15;;;;;;;20.09;81.25;100982.22;5003352;28;20030;-71
2022/08/19 00:26:31;;;;;;;61.90;34.10;;;;;;;19.94;82.42;100973.38;4996437;28;20180;-70
2022/08/19 00:28:56;;;;;;;60.05;34.88;;;;;;;19.98;82.50;100969.16;5007140;28;20495;-70
2022/08/19 00:31:22;;;;;;;47.33;30.20;;;;;;;20.15;81.60;100975.84;4997506;28;20022;-70
2022/08/19 00:33:49;;;;;;;55.22;30.33;;;;;;;20.38;80.59;100978.03;4998989;28;20033;-70
2022/08/19 00:36:14;;;;;;;52.22;30.75;;;;;;;20.41;80.53;100974.00;4999692;28;20033;-70
2022/08/19 00:38:43;;;;;;;50.42;29.35;;;;;;;20.18;81.33;100975.41;4994427;28;20076;-70
2022/08/19 00:41:13;;;;;;;53.00;32.95;;;;;;;20.24;80.73;100969.03;4999282;28;20045;-70
2022/08/19 00:43:38;;;;;;;46.88;29.83;;;;;;;20.17;81.36;100968.22;4994322;28;20038;-70
2022/08/19 00:46:04;;;;;;;51.40;30.38;;;;;;;20.10;81.57;100956.41;4997120;28;20085;-70
2022/08/19 00:48:32;;;;;;;53.17;30.17;;;;;;;20.18;81.57;100964.41;5009977;28;20060;-70
2022/08/19 00:50:58;;;;;;;47.10;27.92;;;;;;;20.24;81.01;100963.53;5001716;28;20065;-70
2022/08/19 00:53:27;;;;;;;55.90;30.00;;;;;;;20.24;80.98;100958.03;5001794;28;20057;-70
2022/08/19 00:55:56;;;;;;;48.97;26.73;;;;;;;20.16;81.41;100950.03;5005785;28;20477;-70
2022/08/19 00:58:27;;;;;;;52.75;31.17;;;;;;;19.93;82.36;100944.22;4997110;28;20085;-70
2022/08/19 01:00:52;;;;;;;63.85;34.85;;;;;;;19.97;82.15;100954.56;4999142;28;20127;-70
2022/08/19 01:03:19;;;;;;;70.22;35.28;;;;;;;19.84;82.86;100951.88;4992786;28;20047;-70
2022/08/19 01:05:47;;;;;;;59.42;34.22;;;;;;;19.82;82.81;100947.63;4997687;28;20038;-70
2022/08/19 01:08:15;;;;;;;66.88;33.67;;;;;;;19.78;83.08;100958.25;4997737;28;20022;-70
2022/08/19 01:10:46;;;;;;;59.47;34.40;;;;;;;19.84;82.78;100951.88;5001967;28;20022;-70
2022/08/19 01:13:14;;;;;;;62.35;33.47;;;;;;;19.75;83.37;100954.00;4994029;28;20025;-70
2022/08/19 01:15:45;;;;;;;68.70;34.28;;;;;;;19.70;83.38;100945.59;5001673;28;20033;-70
2022/08/19 01:18:13;;;;;;;63.28;34.65;;;;;;;19.84;82.99;100953.78;4993614;28;20030;-70
2022/08/19 01:20:41;;;;;;;50.80;30.35;;;;;;;19.77;83.27;100940.91;5005012;28;20423;-70
2022/08/19 01:23:07;;;;;;;56.67;30.75;;;;;;;19.88;82.53;100947.63;5000904;28;20026;-70
2022/08/19 01:25:51;;;;;;;50.67;30.70;;;;;;;19.95;82.55;100942.09;4995477;28;20104;-70
2022/08/19 01:28:25;;;;;;;58.33;31.00;;;;;;;19.95;82.85;100937.47;5020764;28;20113;-70
2022/08/19 01:30:53;;;;;;;53.65;28.60;;;;;;;19.94;82.47;100940.41;4995896;28;20096;-70
2022/08/19 01:33:19;;;;;;;49.25;29.48;;;;;;;19.86;82.82;100954.41;5001677;28;20014;-70
2022/08/19 01:35:45;;;;;;;52.83;29.80;;;;;;;19.75;83.38;100939.41;4997885;28;20210;-70
2022/08/19 01:38:23;;;;;;;60.13;29.45;;;;;;;19.83;83.01;100943.84;4993534;28;20113;-70
2022/08/19 01:40:49;;;;;;;46.72;28.13;;;;;;;19.60;84.44;100945.19;4990499;28;20034;-70
2022/08/19 01:43:14;;;;;;;52.47;30.35;;;;;;;19.51;85.28;100940.97;5008959;28;20025;-70
2022/08/19 01:45:40;;;;;;;47.97;30.33;;;;;;;19.44;85.36;100934.66;4999195;28;20084;-70
2022/08/19 01:48:06;;;;;;;45.88;30.10;;;;;;;19.61;84.82;100935.88;5002713;28;20021;-70
2022/08/19 01:50:33;;;;;;;51.63;30.27;;;;;;;19.85;83.78;100925.25;4995880;28;20076;-70
2022/08/19 01:53:00;;;;;;;51.08;30.13;;;;;;;19.83;83.85;100928.22;5003865;28;20040;-70
2022/08/19 01:55:26;;;;;;;49.13;29.83;;;;;;;19.85;83.56;100917.00;5006497;28;20057;-70
2022/08/19 01:57:55;;;;;;;51.08;30.25;;;;;;;19.95;82.95;100915.47;5006494;28;20026;-69
2022/08/19 02:00:23;;;;;;;53.60;30.27;;;;;;;19.87;83.46;100923.09;4998430;28;20019;-71
2022/08/19 02:02:49;;;;;;;49.15;31.42;;;;;;;19.74;84.24;100924.84;5009521;28;20037;-70
2022/08/19 02:05:16;;;;;;;57.30;32.13;;;;;;;19.76;83.78;100927.41;5002291;28;20026;-70
2022/08/19 02:07:41;;;;;;;48.22;29.42;;;;;;;19.71;84.33;100925.28;5008183;28;20018;-70
2022/08/19 02:10:11;;;;;;;50.22;29.70;;;;;;;19.58;84.96;100919.84;4999446;28;20053;-70
2022/08/19 02:12:36;;;;;;;56.35;32.22;;;;;;;19.66;84.60;100922.34;5005425;28;20034;-70
2022/08/19 02:15:02;;;;;;;60.63;33.88;;;;;;;19.31;86.74;100912.72;5001989;28;20136;-70
2022/08/19 02:17:28;;;;;;;66.65;34.90;;;;;;;19.38;86.56;100908.06;5001764;28;20035;-70
2022/08/19 02:19:56;;;;;;;60.72;32.03;;;;;;;19.54;86.01;100899.31;5004533;28;20022;-70
2022/08/19 02:22:21;;;;;;;62.13;33.42;;;;;;;19.64;85.32;100886.03;5004097;28;20104;-70
2022/08/19 02:24:47;;;;;;;62.15;32.63;;;;;;;19.62;85.52;100882.63;5004474;28;20077;-70
2022/08/19 02:27:58;;;;;;;;;;;;;;;;;;;;;
2022/08/19 02:31:10;;;;;;;;;;;;;;;;;;;;;
2022/08/19 02:33:42;;;;;;;56.83;31.83;;;;;;;19.58;85.54;100908.84;4984396;28;20034;-79
2022/08/19 02:36:08;;;;;;;52.70;31.73;;;;;;;19.73;84.90;100906.69;4998078;28;20113;-81
2022/08/19 02:38:54;;;;;;;63.63;32.53;;;;;;;19.65;85.28;100911.59;4994162;28;20723;-84
2022/08/19 02:41:44;;;;;;;61.60;32.72;;;;;;;19.65;85.40;100912.44;5000586;28;20076;-80
2022/08/19 02:44:31;;;;;;;84.50;34.42;;;;;;;19.54;85.83;100907.56;5003199;28;20058;-81
2022/08/19 02:47:47;;;;;;;73.28;35.88;;;;;;;19.32;87.13;100908.91;5003204;28;20113;-81
2022/08/19 02:51:15;;;;;;;;;;;;;;;;;;;;;
2022/08/19 02:54:20;;;;;;;72.32;35.33;;;;;;;19.63;85.73;100902.72;4985340;28;20042;-81
2022/08/19 02:57:25;;;;;;;63.42;32.83;;;;;;;19.66;85.78;100903.13;5001971;28;20037;-81
2022/08/19 03:00:21;;;;;;;66.60;34.80;;;;;;;19.66;85.61;100911.34;4998355;28;20027;-81
2022/08/19 03:03:26;;;;;;;;;;;;;;;;;;;;;
2022/08/19 03:06:35;;;;;;;71.57;34.55;;;;;;;19.84;85.25;100904.31;4981883;28;20042;-81
2022/08/19 03:09:36;;;;;;;81.68;36.97;;;;;;;19.53;86.48;100908.63;4991781;28;20185;-80
2022/08/19 03:12:18;;;;;;;81.18;37.05;;;;;;;19.47;86.89;100906.75;4991225;28;20386;-80
2022/08/19 03:14:47;;;;;;;84.40;38.03;;;;;;;19.47;87.08;100912.22;5004126;28;20030;-82
2022/08/19 03:17:39;;;;;;;76.05;35.42;;;;;;;19.70;86.20;100907.13;4998772;28;20033;-81
2022/08/19 03:27:37;;;;;;;83.60;35.33;;;;;;;19.61;86.24;100900.16;4991757;28;20547;-81
2022/08/19 03:31:32;;;;;;;;;;;;;;;;;;;;;
2022/08/19 03:34:45;;;;;;;90.40;38.58;;;;;;;19.41;87.72;100907.59;4936700;28;20036;-82
2022/08/19 03:37:56;;;;;;;;;;;;;;;;;;;;;
2022/08/19 03:44:15;;;;;;;75.38;37.20;;;;;;;19.09;89.19;100907.47;4997839;28;20045;-81
2022/08/19 03:47:04;;;;;;;81.97;38.35;;;;;;;18.96;90.15;100910.22;4989507;28;20073;-81
2022/08/19 03:50:04;;;;;;;;;;;;;;;;;;;;;
2022/08/19 03:52:33;;;;;;;97.78;39.00;;;;;;;19.06;89.30;100926.28;5000045;28;20027;-80
2022/08/19 03:54:58;;;;;;;73.78;35.35;;;;;;;19.19;89.09;100935.31;5001825;28;20033;-80
2022/08/19 03:57:23;;;;;;;80.70;34.80;;;;;;;19.33;88.24;100943.53;5001167;28;20030;-80
2022/08/19 04:00:28;;;;;;;88.55;38.65;;;;;;;19.44;87.64;100940.97;5001518;28;20026;-81
2022/08/19 04:06:21;;;;;;;76.32;33.60;;;;;;;19.53;87.12;100955.31;5004515;28;20121;-81
2022/08/19 04:09:16;;;;;;;81.55;36.25;;;;;;;19.57;86.85;100956.59;5002613;28;20034;-81
2022/08/19 04:12:10;;;;;;;83.10;36.17;;;;;;;19.44;87.25;100945.63;5002572;28;20037;-82
2022/08/19 04:15:44;;;;;;;75.18;33.55;;;;;;;19.47;87.00;100950.69;5004317;28;20034;-81
2022/08/19 04:22:20;;;;;;;70.72;33.00;;;;;;;19.56;86.33;100965.88;4902507;28;20038;-81
2022/08/19 04:24:56;;;;;;;66.47;34.97;;;;;;;19.41;87.10;100962.53;5005725;28;20040;-81
2022/08/19 04:27:38;;;;;;;67.80;33.80;;;;;;;19.43;87.04;100972.25;5000144;28;20057;-81
2022/08/19 04:31:17;;;;;;;74.22;34.72;;;;;;;19.43;87.25;100966.75;5001025;28;20033;-82
2022/08/19 04:37:24;;;;;;;81.15;38.28;;;;;;;19.34;88.02;100978.16;5002481;28;20050;-81
2022/08/19 04:43:37;;;;;;;74.13;40.05;;;;;;;19.22;88.31;100964.22;5002069;28;20022;-81
2022/08/19 04:46:17;;;;;;;86.68;41.78;;;;;;;19.08;88.93;100974.38;4992445;28;20038;-81
2022/08/19 04:48:50;;;;;;;103.13;49.75;;;;;;;19.17;88.40;100967.66;4999473;28;20026;-81
2022/08/19 04:51:15;;;;;;;99.82;45.28;;;;;;;19.37;87.65;100967.63;4996749;28;20019;-82
2022/08/19 04:53:41;;;;;;;103.95;48.10;;;;;;;19.34;87.53;100979.00;5000172;28;20022;-79
2022/08/19 04:56:10;;;;;;;104.38;46.88;;;;;;;19.35;87.33;100975.19;5008392;28;20038;-82
2022/08/19 04:58:37;;;;;;;108.88;49.45;;;;;;;19.41;86.87;100979.84;5007942;28;20022;-81
2022/08/19 05:01:17;;;;;;;124.82;51.92;;;;;;;19.28;87.81;100979.03;5000050;28;20046;-81
2022/08/19 05:04:42;;;;;;;109.90;50.10;;;;;;;19.28;88.12;100979.03;4991944;28;20037;-81
2022/08/19 05:07:32;;;;;;;120.60;51.40;;;;;;;19.35;87.92;100985.34;4996853;28;20030;-78
2022/08/19 05:10:35;;;;;;;125.80;52.58;;;;;;;19.31;87.80;100978.59;5011749;28;20045;-81
2022/08/19 05:13:02;;;;;;;108.18;49.65;;;;;;;19.19;88.45;100975.66;4995758;28;20030;-81
2022/08/19 05:15:28;;;;;;;108.63;52.35;;;;;;;19.33;87.66;100987.47;4995870;28;20114;-80
2022/08/19 05:23:34;;;;;;;114.60;53.00;;;;;;;19.20;88.72;100994.66;5003170;28;20038;-80
2022/08/19 05:26:10;;;;;;;106.72;48.03;;;;;;;19.37;88.03;101000.56;5008387;23;20724;-72
2022/08/19 05:28:36;;;;;;;104.45;49.05;;;;;;;19.39;88.00;100997.59;5009347;28;20037;-73
2022/08/19 05:31:01;;;;;;;121.25;51.30;;;;;;;19.30;88.37;101004.34;5008533;28;20083;-73
2022/08/19 05:33:27;;;;;;;113.70;50.28;;;;;;;19.30;88.53;101004.34;5015279;28;20076;-73
2022/08/19 05:35:52;;;;;;;113.00;47.85;;;;;;;19.23;88.92;100999.75;5014220;28;20084;-73
2022/08/19 05:38:18;;;;;;;112.50;51.08;;;;;;;19.37;88.05;100999.72;5013712;28;20404;-72
2022/08/19 05:40:49;;;;;;;96.50;49.33;;;;;;;19.11;89.19;101006.91;5013592;28;20109;-73
2022/08/19 05:43:15;;;;;;;106.43;50.00;;;;;;;19.14;88.95;101001.00;5015252;28;20037;-74
2022/08/19 05:45:42;;;;;;;101.65;51.30;;;;;;;19.17;88.78;100997.84;5015161;28;20072;-72
2022/08/19 05:48:11;;;;;;;111.63;51.58;;;;;;;19.34;87.94;101000.13;5013744;28;20033;-72
2022/08/19 05:50:39;;;;;;;119.80;55.42;;;;;;;19.35;87.82;100990.84;5015105;28;20025;-72
2022/08/19 05:53:05;;;;;;;106.47;47.38;;;;;;;19.45;87.59;100985.75;5014488;28;20034;-72
2022/08/19 05:55:31;;;;;;;125.28;52.47;;;;;;;19.49;87.16;100998.00;5015323;28;20095;-74
2022/08/19 05:57:57;;;;;;;134.15;55.35;;;;;;;19.56;87.00;100996.09;5013655;28;20026;-72
2022/08/19 06:00:23;;;;;;;124.47;53.85;;;;;;;19.67;86.41;100984.47;5013401;28;20024;-72
2022/08/19 06:02:48;;;;;;;109.00;52.40;;;;;;;19.59;86.52;100987.44;5013507;28;20032;-72
2022/08/19 06:05:14;;;;;;;119.45;52.58;;;;;;;19.48;87.33;100993.56;5013203;28;20084;-72
2022/08/19 06:07:40;;;;;;;121.40;54.53;;;;;;;19.52;87.16;100986.59;5012936;28;20041;-74
2022/08/19 06:10:08;;;;;;;115.82;49.15;;;;;;;19.71;86.24;100991.22;5013399;28;20026;-74
2022/08/19 06:12:35;;;;;;;113.13;48.15;;;;;;;19.63;86.41;100988.72;5013463;28;20030;-72
2022/08/19 06:15:04;;;;;;;94.45;44.85;;;;;;;19.75;85.90;100986.97;5016646;28;20573;-71
2022/08/19 06:17:29;;;;;;;98.57;48.38;;;;;;;19.70;86.25;100989.53;5014419;28;20037;-72
2022/08/19 06:19:55;;;;;;;97.43;41.88;;;;;;;19.73;85.38;100994.59;5017443;28;20092;-71
2022/08/19 06:22:21;;;;;;;82.18;41.67;;;;;;;19.83;85.18;100996.06;5014222;28;20021;-72
2022/08/19 06:24:46;;;;;;;89.35;42.08;;;;;;;19.89;84.83;101000.69;5013951;28;20040;-72
2022/08/19 06:27:11;;;;;;;86.03;39.67;;;;;;;19.82;84.95;101000.69;5016164;28;20026;-71
2022/08/19 06:29:37;;;;;;;76.35;41.17;;;;;;;19.70;85.58;100995.03;5012214;28;20092;-71
2022/08/19 06:32:03;;;;;;;81.47;40.92;;;;;;;19.83;84.98;101001.56;5016113;28;20065;-72
2022/08/19 06:34:31;;;;;;;86.35;41.17;;;;;;;19.79;85.17;100996.47;5013106;28;20191;-72
2022/08/19 06:37:00;;;;;;;71.53;37.45;;;;;;;19.83;84.90;100990.56;5014050;28;20037;-73
2022/08/19 06:39:29;;;;;;;91.57;41.17;;;;;;;19.72;85.50;100992.91;5016871;28;20025;-74
2022/08/19 06:41:57;;;;;;;87.60;40.92;;;;;;;19.87;84.71;100989.06;5015232;28;20029;-74
2022/08/19 06:44:26;;;;;;;86.03;39.65;;;;;;;19.73;84.98;100983.59;5016170;28;20022;-74
2022/08/19 06:46:52;;;;;;;86.57;38.50;;;;;;;19.74;85.42;100979.78;5013827;28;20036;-73
2022/08/19 06:49:18;;;;;;;89.43;41.05;;;;;;;19.70;85.41;100978.56;5012222;28;20037;-73
2022/08/19 06:51:47;;;;;;;80.55;37.42;;;;;;;19.63;85.55;100983.22;5012193;28;20030;-73
2022/08/19 06:54:13;;;;;;;77.80;37.90;;;;;;;19.74;84.93;100990.78;5013061;28;20093;-73
2022/08/19 06:56:39;;;;;;;83.80;40.63;;;;;;;19.91;84.10;100987.56;5012633;28;20018;-73
2022/08/19 06:59:10;;;;;;;80.40;38.60;;;;;;;19.81;84.60;100989.91;5012357;28;20072;-72
2022/08/19 07:01:46;;;;;;;88.63;39.17;;;;;;;19.86;84.32;100987.38;4999457;28;20628;-72
2022/08/19 07:04:15;;;;;;;79.65;38.75;;;;;;;19.86;84.07;100998.38;4993771;28;20026;-75
2022/08/19 07:06:41;;;;;;;77.85;39.35;;;;;;;20.02;83.54;100997.91;5004986;28;20025;-72
2022/08/19 07:09:09;;;;;;;81.97;37.10;;;;;;;19.99;83.70;100995.56;4999850;28;20033;-73
2022/08/19 07:11:34;;;;;;;85.63;40.75;;;;;;;20.23;82.74;100989.34;5000574;28;20452;-74
2022/08/19 07:14:01;;;;;;;77.78;38.13;;;;;;;20.24;82.55;100995.69;5003371;28;20041;-74
2022/08/19 07:16:27;;;;;;;90.18;43.25;;;;;;;20.21;82.58;100991.47;5002409;28;20030;-74
2022/08/19 07:18:53;;;;;;;89.68;43.30;;;;;;;19.97;83.69;100989.47;5005680;28;20026;-74
2022/08/19 07:21:23;;;;;;;91.35;44.22;;;;;;;19.71;84.96;100993.97;5005691;28;20092;-74
2022/08/19 07:23:49;;;;;;;102.32;45.75;;;;;;;19.57;85.65;100995.03;5006612;28;20030;-73
2022/08/19 07:26:21;;;;;;;101.95;43.65;;;;;;;19.57;85.71;100997.78;5005837;28;20022;-74
2022/08/19 07:28:47;;;;;;;;;;;;;;;19.68;85.16;100997.13;5005863;28;20053;-74
2022/08/19 07:31:15;;;;;;;111.70;45.45;;;;;;;19.73;85.39;100994.59;4999823;28;19917;-73
2022/08/19 07:33:42;;;;;;;96.68;46.15;;;;;;;20.01;83.89;101007.19;5005082;28;20110;-73
2022/08/19 07:36:13;;;;;;;109.72;44.38;;;;;;;19.97;83.91;101011.44;5004573;28;20084;-73
2022/08/19 07:38:41;;;;;;;96.50;43.25;;;;;;;19.97;83.92;101020.53;5005521;28;20084;-72
2022/08/19 07:41:08;;;;;;;85.50;41.60;;;;;;;19.68;85.51;101013.63;4997686;28;20025;-73
2022/08/19 07:43:33;;;;;;;95.75;42.00;;;;;;;19.74;85.28;101022.91;5001750;28;20141;-74
2022/08/19 07:45:59;;;;;;;84.28;42.55;;;;;;;19.43;86.81;101021.69;5005976;28;20049;-73
2022/08/19 07:48:26;;;;;;;95.15;42.38;;;;;;;19.55;86.09;101024.59;5004658;28;20128;-73
2022/08/19 07:50:59;;;;;;;90.22;41.28;;;;;;;19.68;85.56;101019.13;5005209;28;20060;-74
2022/08/19 07:53:24;;;;;;;93.45;43.90;;;;;;;19.77;85.12;101023.34;5006615;28;20017;-73
2022/08/19 07:55:51;;;;;;;90.22;41.38;;;;;;;20.06;84.13;101026.63;5005246;28;20552;-73
2022/08/19 07:58:21;;;;;;;89.35;42.50;;;;;;;19.94;84.35;101033.84;5002447;28;20033;-73
2022/08/19 08:00:49;;;;;;;87.35;41.17;;;;;;;20.09;83.59;101037.19;5006256;28;20325;-73
2022/08/19 08:03:17;;;;;;;95.32;42.97;;;;;;;19.89;84.67;101044.66;5004623;28;20018;-73
2022/08/19 08:11:12;;;;;;;83.80;39.22;;;;;;;20.23;83.08;101047.09;5007041;28;20029;-73
2022/08/19 08:13:38;;;;;;;89.32;41.15;;;;;;;20.36;82.63;101054.44;5005448;28;20036;-73
2022/08/19 08:16:04;;;;;;;82.15;38.22;;;;;;;20.38;82.75;101056.97;5006513;28;20037;-73
2022/08/19 08:18:29;;;;;;;81.93;38.90;;;;;;;20.25;83.46;101042.19;5006693;28;20168;-73
2022/08/19 08:20:55;;;;;;;79.95;38.53;;;;;;;20.50;82.31;101049.75;5005987;28;20100;-73
2022/08/19 08:23:22;;;;;;;87.20;41.22;;;;;;;20.23;82.93;101055.31;5006375;28;20013;-73
2022/08/19 08:25:48;;;;;;;78.15;37.70;;;;;;;20.24;83.30;101057.00;5005437;28;20018;-74
2022/08/19 08:28:15;;;;;;;84.80;39.60;;;;;;;20.22;83.21;101063.81;5005816;28;20029;-74
2022/08/19 08:30:43;;;;;;;86.53;41.25;;;;;;;20.18;83.63;101068.88;5005290;28;20057;-73
2022/08/19 08:33:09;;;;;;;74.80;37.53;;;;;;;20.23;83.29;101066.31;5005729;28;20021;-73
2022/08/19 08:35:35;;;;;;;68.97;36.28;;;;;;;20.30;82.93;101072.66;5003684;28;20105;-73
2022/08/19 08:38:03;;;;;;;69.07;34.83;;;;;;;20.23;83.29;101063.56;5003784;28;20530;-73
2022/08/19 08:40:53;;;;;;;74.75;37.22;;;;;;;19.88;85.41;101067.69;5002768;28;20030;-74
2022/08/19 08:43:30;;;;;;;70.03;32.63;;;;;;;20.08;84.17;101073.13;5001015;28;20026;-73
2022/08/19 08:46:13;;;;;;;64.30;31.50;;;;;;;20.33;83.17;101066.69;5004347;28;20021;-73
2022/08/19 08:49:00;;;;;;;56.05;31.60;;;;;;;20.25;83.28;101069.69;5004611;28;20091;-73
2022/08/19 08:51:47;;;;;;;58.60;28.92;;;;;;;20.23;83.50;101077.31;5004863;28;20083;-73
2022/08/19 08:54:19;;;;;;;60.33;29.10;;;;;;;20.19;83.41;101081.56;5007960;28;20050;-73
2022/08/19 08:56:47;;;;;;;57.30;30.55;;;;;;;20.24;82.97;101070.75;5010640;28;20018;-74
2022/08/19 08:59:35;;;;;;;56.65;29.27;;;;;;;20.51;82.25;101073.44;5009303;28;20060;-73
2022/08/19 09:02:01;;;;;;;53.25;27.02;;;;;;;20.28;83.08;101074.78;5007247;28;20034;-73
2022/08/19 09:04:27;;;;;;;56.72;27.83;;;;;;;20.21;83.35;101073.09;5009952;28;20021;-73
2022/08/19 09:07:21;;;;;;;52.58;29.23;;;;;;;20.30;83.03;101078.16;4998691;28;20029;-73
2022/08/19 09:09:50;;;;;;;51.45;28.25;;;;;;;20.49;82.46;101075.56;5001748;28;20037;-74
2022/08/19 09:12:23;;;;;;;50.45;27.85;;;;;;;20.52;82.16;101075.13;5008874;28;20586;-74
2022/08/19 09:14:56;;;;;;;58.35;29.10;;;;;;;20.53;82.36;101076.78;5009322;28;20041;-74
2022/08/19 09:17:30;;;;;;;60.67;28.25;;;;;;;20.71;81.67;101076.91;5007564;28;20053;-74
2022/08/19 09:20:14;;;;;;;60.20;29.55;;;;;;;20.54;82.30;101078.50;5010264;28;20168;-72
2022/08/19 09:22:45;;;;;;;60.10;30.90;;;;;;;20.52;82.51;101081.47;5006571;28;20034;-74
2022/08/19 09:25:14;;;;;;;56.40;28.45;;;;;;;20.58;82.59;101085.25;5007060;28;20527;-74
2022/08/19 09:27:41;;;;;;;61.30;30.15;;;;;;;20.20;83.74;101077.75;5007632;28;20041;-73
2022/08/19 09:30:08;;;;;;;58.17;29.92;;;;;;;20.17;84.34;101077.34;5008468;28;20018;-73
2022/08/19 09:32:34;;;;;;;58.05;29.55;;;;;;;20.32;83.76;101081.50;5007871;28;20057;-74
2022/08/19 09:35:00;;;;;;;61.80;27.80;;;;;;;20.37;83.34;101077.28;5007592;28;20021;-74
2022/08/19 09:37:25;;;;;;;52.08;28.80;;;;;;;20.45;82.95;101074.31;5009577;28;20033;-73
2022/08/19 09:39:51;;;;;;;56.97;28.33;;;;;;;20.51;82.53;101071.53;5003493;28;20030;-74
2022/08/19 09:42:17;;;;;;;59.05;30.35;;;;;;;20.43;83.21;101073.66;5005245;28;20026;-74
2022/08/19 09:44:43;;;;;;;57.53;28.52;;;;;;;20.35;83.50;101074.75;5006781;28;20033;-74
2022/08/19 09:47:10;;;;;;;51.00;27.98;;;;;;;20.41;83.27;101068.38;5011192;28;20014;-74
2022/08/19 09:49:35;;;;;;;58.20;28.40;;;;;;;20.57;83.01;101078.06;5002781;28;20126;-74
2022/08/19 09:52:01;;;;;;;54.33;27.23;;;;;;;20.83;81.82;101069.66;5004948;28;20105;-74
2022/08/19 09:54:28;;;;;;;54.92;29.05;;;;;;;20.69;81.92;101065.31;5001847;28;20024;-74
2022/08/19 09:56:54;;;;;;;56.40;30.40;;;;;;;20.42;83.07;101069.22;5003163;28;20030;-74
2022/08/19 09:59:20;;;;;;;53.28;27.55;;;;;;;20.57;82.77;101061.56;5003183;28;20022;-72
2022/08/19 10:01:46;;;;;;;51.00;27.60;;;;;;;20.46;82.50;101070.50;5006307;28;20042;-72
2022/08/19 10:04:12;;;;;;;53.42;27.25;;;;;;;20.23;83.29;101066.31;5005605;28;20030;-72
2022/08/19 10:06:39;;;;;;;60.85;29.40;;;;;;;19.99;84.08;101058.78;5008610;28;20025;-71
2022/08/19 10:09:10;;;;;;;49.90;28.73;;;;;;;20.04;84.30;101068.09;5006565;28;20384;-73
2022/08/19 10:11:39;;;;;;;48.05;24.70;;;;;;;20.41;82.92;101067.50;5008052;28;20053;-74
2022/08/19 10:14:08;;;;;;;57.03;25.60;;;;;;;20.57;81.86;101067.91;5006917;28;20025;-74
2022/08/19 10:16:35;;;;;;;48.90;24.08;;;;;;;20.40;82.73;101071.31;5007925;28;20022;-73
2022/08/19 10:19:01;;;;;;;49.60;24.20;;;;;;;20.75;81.27;101075.44;5005293;28;20080;-72
2022/08/19 10:21:29;;;;;;;43.42;24.52;;;;;;;20.55;82.18;101080.19;5006581;28;20097;-72
2022/08/19 10:23:58;;;;;;;46.67;24.48;;;;;;;20.60;82.17;101083.09;5008602;28;20034;-72
2022/08/19 10:26:30;;;;;;;56.83;27.02;;;;;;;20.49;82.92;101081.06;5006838;28;20025;-72
2022/08/19 10:28:56;;;;;;;;;;;;;;;20.86;81.44;101077.50;5005576;28;20033;-72
2022/08/19 10:31:25;;;;;;;51.03;24.55;;;;;;;20.73;82.02;101072.03;5007543;28;19909;-72
2022/08/19 10:33:57;;;;;;;47.88;23.73;;;;;;;21.11;80.69;101068.41;5006751;28;20026;-72
2022/08/19 10:36:35;;;;;;;51.33;26.02;;;;;;;20.85;81.22;101075.78;5003739;28;20109;-74
2022/08/19 10:39:05;;;;;;;47.08;27.67;;;;;;;20.83;80.99;101075.16;5004731;28;20034;-73
2022/08/19 10:41:33;;;;;;;48.55;25.65;;;;;;;20.80;81.35;101072.88;5005752;28;20030;-73
2022/08/19 10:44:01;;;;;;;58.17;27.85;;;;;;;20.67;82.10;101083.94;5007247;28;20192;-73
2022/08/19 10:46:29;;;;;;;49.50;25.58;;;;;;;20.72;82.01;101075.84;5007640;28;20075;-73
2022/08/19 10:48:54;;;;;;;55.10;24.25;;;;;;;20.90;81.38;101077.03;5003904;28;20042;-73
2022/08/19 10:54:06;;;;;;;47.33;25.02;;;;;;;21.16;79.61;101070.50;5007909;28;20049;-73
2022/08/19 10:56:52;;;;;;;57.20;25.30;;;;;;;21.26;79.55;101071.69;5000996;28;20089;-73
2022/08/19 10:59:29;;;;;;;45.67;22.38;;;;;;;21.05;80.80;101069.28;5008628;28;20102;-73
2022/08/19 11:01:59;;;;;;;45.08;27.23;;;;;;;20.69;81.76;101070.81;5003598;28;20399;-72
2022/08/19 11:04:24;;;;;;;54.13;28.95;;;;;;;20.39;83.41;101075.16;5008898;28;20014;-74
2022/08/19 11:06:50;;;;;;;52.85;28.42;;;;;;;20.53;82.60;101076.78;5004324;28;20030;-73
2022/08/19 11:09:19;;;;;;;53.53;30.67;;;;;;;20.57;82.36;101065.16;5007851;28;20062;-73
2022/08/19 11:11:44;;;;;;;58.58;27.80;;;;;;;20.94;81.07;101067.28;5005616;28;20033;-73
2022/08/19 11:14:13;;;;;;;50.28;27.00;;;;;;;20.94;80.98;101064.53;5005658;28;20445;-73
2022/08/19 11:16:40;;;;;;;57.35;28.85;;;;;;;20.78;81.75;101074.13;5006858;28;20526;-73
2022/08/19 11:19:07;;;;;;;50.28;28.80;;;;;;;20.83;81.63;101077.06;5005943;28;20033;-73
2022/08/19 11:21:36;;;;;;;56.58;28.92;;;;;;;20.53;82.89;101083.16;4999055;28;20026;-73
2022/08/19 11:24:05;;;;;;;58.47;29.17;;;;;;;20.54;82.87;101070.25;5006609;28;20029;-74
2022/08/19 11:26:32;;;;;;;52.35;27.00;;;;;;;20.93;81.38;101076.56;5005956;28;20109;-73
2022/08/19 11:28:58;;;;;;;55.55;27.67;;;;;;;20.89;81.43;101075.34;5002163;28;20029;-73
2022/08/19 11:31:27;;;;;;;58.78;28.02;;;;;;;21.06;80.63;101073.72;4997203;28;20480;-73
2022/08/19 11:33:53;;;;;;;57.05;28.15;;;;;;;21.24;79.88;101079.31;5004092;28;20025;-73
2022/08/19 11:36:20;;;;;;;47.05;25.80;;;;;;;21.28;79.48;101075.09;5005811;28;20037;-73
2022/08/19 11:38:48;;;;;;;49.30;25.80;;;;;;;21.35;78.93;101064.88;5006452;28;20022;-73
2022/08/19 11:41:15;;;;;;;58.08;26.23;;;;;;;21.59;78.02;101059.59;5003897;28;20022;-73
2022/08/19 11:43:41;;;;;;;48.78;28.05;;;;;;;21.57;77.73;101056.19;5005770;28;20029;-73
2022/08/19 11:46:14;;;;;;;47.20;25.38;;;;;;;21.53;78.09;101054.97;5006536;28;20056;-73
2022/08/19 11:48:39;;;;;;;40.55;23.45;;;;;;;21.70;77.42;101061.56;5003632;28;20543;-73
2022/08/19 11:51:09;;;;;;;50.00;25.08;;;;;;;21.52;77.84;101058.81;5004184;28;20140;-73
2022/08/19 11:53:36;;;;;;;47.13;25.13;;;;;;;21.72;77.08;101053.94;4999016;28;20483;-73
2022/08/19 11:56:02;;;;;;;38.63;22.55;;;;;;;21.57;77.67;101051.53;5003639;28;20109;-73
2022/08/19 11:58:29;;;;;;;37.58;23.42;;;;;;;22.01;76.52;101062.53;5004678;28;20033;-73
2022/08/19 12:00:54;;;;;;;45.30;22.35;;;;;;;22.07;75.61;101050.59;5005599;28;20029;-73
2022/08/19 12:03:19;;;;;;;39.17;21.88;;;;;;;22.40;74.41;101045.53;5005310;28;20026;-73
2022/08/19 12:05:45;;;;;;;37.10;21.20;;;;;;;22.51;73.68;101062.41;5003844;28;20018;-74
2022/08/19 12:08:12;;;;;;;37.40;22.38;;;;;;;22.72;73.01;101059.13;5001163;28;20072;-75
2022/08/19 12:10:38;;;;;;;36.70;21.17;;;;;;;22.45;74.04;101067.75;5002502;28;20105;-74
2022/08/19 12:13:06;;;;;;;31.50;19.65;;;;;;;22.46;73.74;101058.41;5021222;28;20065;-74
2022/08/19 12:15:36;;;;;;;30.23;20.35;;;;;;;22.41;73.97;101062.94;5001121;28;20015;-75
2022/08/19 12:18:03;;;;;;;34.47;21.73;;;;;;;22.35;74.29;101059.19;5002488;28;20105;-72
2022/08/19 12:20:28;;;;;;;34.70;18.95;;;;;;;22.51;73.81;101057.72;5005288;28;20265;-73